sensor_id;sensor_type;location;lat;lon;timestamp;P1;durP1;ratioP1;P2;durP2;ratioP2
61397;SDS011;47267;48.130;-2.040;2024-01-25T00:01:08;7.75;;;4.32;;
61397;SDS011;47267;48.130;-2.040;2024-01-25T00:03:33;9.05;;;5.10;;
61397;SDS011;47267;48.130;-2.040;2024-01-25T00:06:00;7.32;;;4.65;;
61397;SDS011;47267;48.130;-2.040;2024-01-25T00:08:26;6.68;;;4.15;;
61397;SDS011;47267;48.130;-2.040;2024-01-25T00:10:51;5.65;;;4.00;;
61397;SDS011;47267;48.130;-2.040;2024-01-25T00:13:17;7.88;;;4.10;;
61397;SDS011;47267;48.130;-2.040;2024-01-25T00:15:42;6.72;;;3.60;;
61397;SDS011;47267;48.130;-2.040;2024-01-25T00:18:08;4.82;;;3.75;;
61397;SDS011;47267;48.130;-2.040;2024-01-25T00:20:34;5.00;;;3.90;;
61397;SDS011;47267;48.130;-2.040;2024-01-25T00:23:00;6.53;;;3.70;;
61397;SDS011;47267;48.130;-2.040;2024-01-25T00:25:26;5.57;;;3.33;;
61397;SDS011;47267;48.130;-2.040;2024-01-25T00:27:52;5.60;;;3.88;;
61397;SDS011;47267;48.130;-2.040;2024-01-25T00:30:18;5.80;;;3.72;;
61397;SDS011;47267;48.130;-2.040;2024-01-25T00:32:43;6.30;;;3.58;;
61397;SDS011;47267;48.130;-2.040;2024-01-25T00:35:09;4.75;;;3.83;;
61397;SDS011;47267;48.130;-2.040;2024-01-25T00:37:38;4.57;;;3.58;;
61397;SDS011;47267;48.130;-2.040;2024-01-25T00:40:05;7.18;;;4.15;;
61397;SDS011;47267;48.130;-2.040;2024-01-25T00:42:31;4.47;;;3.08;;
61397;SDS011;47267;48.130;-2.040;2024-01-25T00:45:06;5.28;;;3.47;;
61397;SDS011;47267;48.130;-2.040;2024-01-25T00:47:32;5.57;;;3.85;;
61397;SDS011;47267;48.130;-2.040;2024-01-25T00:49:58;5.55;;;3.70;;
61397;SDS011;47267;48.130;-2.040;2024-01-25T00:52:24;6.18;;;3.80;;
61397;SDS011;47267;48.130;-2.040;2024-01-25T00:54:51;5.78;;;3.72;;
61397;SDS011;47267;48.130;-2.040;2024-01-25T00:57:16;4.75;;;3.30;;
61397;SDS011;47267;48.130;-2.040;2024-01-25T00:59:42;5.07;;;3.53;;
61397;SDS011;47267;48.130;-2.040;2024-01-25T01:02:11;4.80;;;3.30;;
61397;SDS011;47267;48.130;-2.040;2024-01-25T01:04:38;4.47;;;3.22;;
61397;SDS011;47267;48.130;-2.040;2024-01-25T01:07:05;3.95;;;3.00;;
61397;SDS011;47267;48.130;-2.040;2024-01-25T01:09:31;4.15;;;2.90;;
61397;SDS011;47267;48.130;-2.040;2024-01-25T01:11:57;3.70;;;3.03;;
61397;SDS011;47267;48.130;-2.040;2024-01-25T01:14:22;5.35;;;3.05;;
61397;SDS011;47267;48.130;-2.040;2024-01-25T01:16:48;4.88;;;3.00;;
61397;SDS011;47267;48.130;-2.040;2024-01-25T01:19:15;4.60;;;3.33;;
61397;SDS011;47267;48.130;-2.040;2024-01-25T01:21:41;6.78;;;3.20;;
61397;SDS011;47267;48.130;-2.040;2024-01-25T01:24:09;5.75;;;3.08;;
61397;SDS011;47267;48.130;-2.040;2024-01-25T01:26:36;5.38;;;3.42;;
61397;SDS011;47267;48.130;-2.040;2024-01-25T01:29:02;3.97;;;2.92;;
61397;SDS011;47267;48.130;-2.040;2024-01-25T01:31:27;4.50;;;2.83;;
61397;SDS011;47267;48.130;-2.040;2024-01-25T01:33:53;5.30;;;3.05;;
61397;SDS011;47267;48.130;-2.040;2024-01-25T01:36:19;3.80;;;2.78;;
61397;SDS011;47267;48.130;-2.040;2024-01-25T01:38:45;4.40;;;2.95;;
61397;SDS011;47267;48.130;-2.040;2024-01-25T01:41:10;3.88;;;2.92;;
61397;SDS011;47267;48.130;-2.040;2024-01-25T01:43:38;4.82;;;2.75;;
61397;SDS011;47267;48.130;-2.040;2024-01-25T01:46:04;4.10;;;2.75;;
61397;SDS011;47267;48.130;-2.040;2024-01-25T01:48:35;4.18;;;2.80;;
61397;SDS011;47267;48.130;-2.040;2024-01-25T01:51:01;5.38;;;2.70;;
61397;SDS011;47267;48.130;-2.040;2024-01-25T01:53:27;4.13;;;2.60;;
61397;SDS011;47267;48.130;-2.040;2024-01-25T01:55:53;4.07;;;2.63;;
61397;SDS011;47267;48.130;-2.040;2024-01-25T01:58:19;4.75;;;2.60;;
61397;SDS011;47267;48.130;-2.040;2024-01-25T02:00:48;4.15;;;2.90;;
61397;SDS011;47267;48.130;-2.040;2024-01-25T02:03:15;4.03;;;2.75;;
61397;SDS011;47267;48.130;-2.040;2024-01-25T02:05:41;4.03;;;2.83;;
61397;SDS011;47267;48.130;-2.040;2024-01-25T02:08:07;3.58;;;2.67;;
61397;SDS011;47267;48.130;-2.040;2024-01-25T02:10:34;4.15;;;2.65;;
61397;SDS011;47267;48.130;-2.040;2024-01-25T02:12:59;3.53;;;2.40;;
61397;SDS011;47267;48.130;-2.040;2024-01-25T02:15:25;3.80;;;2.67;;
61397;SDS011;47267;48.130;-2.040;2024-01-25T02:17:51;4.82;;;2.65;;
61397;SDS011;47267;48.130;-2.040;2024-01-25T02:20:18;4.75;;;2.40;;
61397;SDS011;47267;48.130;-2.040;2024-01-25T02:22:43;2.97;;;2.33;;
61397;SDS011;47267;48.130;-2.040;2024-01-25T02:25:09;6.00;;;2.65;;
61397;SDS011;47267;48.130;-2.040;2024-01-25T02:27:35;3.55;;;2.42;;
61397;SDS011;47267;48.130;-2.040;2024-01-25T02:30:04;3.67;;;2.53;;
61397;SDS011;47267;48.130;-2.040;2024-01-25T02:32:31;3.80;;;2.22;;
61397;SDS011;47267;48.130;-2.040;2024-01-25T02:34:57;3.88;;;2.20;;
61397;SDS011;47267;48.130;-2.040;2024-01-25T02:37:23;3.45;;;2.40;;
61397;SDS011;47267;48.130;-2.040;2024-01-25T02:39:48;4.82;;;2.47;;
61397;SDS011;47267;48.130;-2.040;2024-01-25T02:42:14;3.35;;;2.20;;
61397;SDS011;47267;48.130;-2.040;2024-01-25T02:44:41;3.30;;;2.05;;
61397;SDS011;47267;48.130;-2.040;2024-01-25T02:47:08;7.53;;;2.47;;
61397;SDS011;47267;48.130;-2.040;2024-01-25T02:49:33;3.58;;;2.00;;
61397;SDS011;47267;48.130;-2.040;2024-01-25T02:51:59;3.00;;;2.05;;
61397;SDS011;47267;48.130;-2.040;2024-01-25T02:54:25;3.22;;;1.83;;
61397;SDS011;47267;48.130;-2.040;2024-01-25T02:56:51;3.22;;;2.15;;
61397;SDS011;47267;48.130;-2.040;2024-01-25T02:59:16;4.20;;;2.30;;
61397;SDS011;47267;48.130;-2.040;2024-01-25T03:01:43;3.17;;;1.90;;
61397;SDS011;47267;48.130;-2.040;2024-01-25T03:04:10;2.72;;;2.00;;
61397;SDS011;47267;48.130;-2.040;2024-01-25T03:06:35;2.90;;;1.90;;
61397;SDS011;47267;48.130;-2.040;2024-01-25T03:09:01;2.63;;;2.10;;
61397;SDS011;47267;48.130;-2.040;2024-01-25T03:11:29;3.70;;;2.20;;
61397;SDS011;47267;48.130;-2.040;2024-01-25T03:13:55;4.40;;;2.00;;
61397;SDS011;47267;48.130;-2.040;2024-01-25T03:16:21;3.75;;;1.98;;
61397;SDS011;47267;48.130;-2.040;2024-01-25T03:18:47;3.20;;;2.00;;
61397;SDS011;47267;48.130;-2.040;2024-01-25T03:21:13;3.22;;;1.60;;
61397;SDS011;47267;48.130;-2.040;2024-01-25T03:23:38;3.92;;;2.05;;
61397;SDS011;47267;48.130;-2.040;2024-01-25T03:26:04;2.95;;;1.90;;
61397;SDS011;47267;48.130;-2.040;2024-01-25T03:28:30;3.17;;;1.83;;
61397;SDS011;47267;48.130;-2.040;2024-01-25T03:30:56;3.63;;;1.95;;
61397;SDS011;47267;48.130;-2.040;2024-01-25T03:33:21;3.53;;;1.73;;
61397;SDS011;47267;48.130;-2.040;2024-01-25T03:35:47;3.08;;;1.98;;
61397;SDS011;47267;48.130;-2.040;2024-01-25T03:38:12;3.67;;;2.05;;
61397;SDS011;47267;48.130;-2.040;2024-01-25T03:40:39;3.38;;;1.75;;
61397;SDS011;47267;48.130;-2.040;2024-01-25T03:43:05;2.33;;;1.48;;
61397;SDS011;47267;48.130;-2.040;2024-01-25T03:45:30;2.70;;;1.85;;
61397;SDS011;47267;48.130;-2.040;2024-01-25T03:47:57;2.08;;;1.60;;
61397;SDS011;47267;48.130;-2.040;2024-01-25T03:50:23;2.67;;;1.70;;
61397;SDS011;47267;48.130;-2.040;2024-01-25T03:52:49;2.63;;;1.80;;
61397;SDS011;47267;48.130;-2.040;2024-01-25T03:55:15;3.28;;;1.70;;
61397;SDS011;47267;48.130;-2.040;2024-01-25T03:57:40;3.22;;;1.77;;
61397;SDS011;47267;48.130;-2.040;2024-01-25T04:00:07;2.75;;;1.98;;
61397;SDS011;47267;48.130;-2.040;2024-01-25T04:02:34;3.22;;;1.70;;
61397;SDS011;47267;48.130;-2.040;2024-01-25T04:05:00;2.80;;;1.40;;
61397;SDS011;47267;48.130;-2.040;2024-01-25T04:07:25;2.58;;;1.65;;
61397;SDS011;47267;48.130;-2.040;2024-01-25T04:09:51;3.00;;;1.80;;
61397;SDS011;47267;48.130;-2.040;2024-01-25T04:12:16;2.30;;;1.45;;
61397;SDS011;47267;48.130;-2.040;2024-01-25T04:14:42;3.35;;;1.70;;
61397;SDS011;47267;48.130;-2.040;2024-01-25T04:17:08;2.67;;;1.70;;
61397;SDS011;47267;48.130;-2.040;2024-01-25T04:19:35;2.45;;;1.58;;
61397;SDS011;47267;48.130;-2.040;2024-01-25T04:22:01;2.88;;;1.85;;
61397;SDS011;47267;48.130;-2.040;2024-01-25T04:24:27;3.30;;;1.77;;
61397;SDS011;47267;48.130;-2.040;2024-01-25T04:26:52;3.47;;;1.70;;
61397;SDS011;47267;48.130;-2.040;2024-01-25T04:29:18;3.03;;;1.58;;
61397;SDS011;47267;48.130;-2.040;2024-01-25T04:31:44;2.42;;;1.75;;
61397;SDS011;47267;48.130;-2.040;2024-01-25T04:34:12;2.45;;;1.70;;
61397;SDS011;47267;48.130;-2.040;2024-01-25T04:36:38;2.38;;;1.40;;
61397;SDS011;47267;48.130;-2.040;2024-01-25T04:39:03;2.40;;;1.55;;
61397;SDS011;47267;48.130;-2.040;2024-01-25T04:41:29;2.35;;;1.48;;
61397;SDS011;47267;48.130;-2.040;2024-01-25T04:43:55;2.55;;;1.70;;
61397;SDS011;47267;48.130;-2.040;2024-01-25T04:46:20;1.90;;;1.30;;
61397;SDS011;47267;48.130;-2.040;2024-01-25T04:48:46;2.28;;;1.55;;
61397;SDS011;47267;48.130;-2.040;2024-01-25T04:51:15;2.33;;;1.52;;
61397;SDS011;47267;48.130;-2.040;2024-01-25T04:53:42;2.88;;;1.73;;
61397;SDS011;47267;48.130;-2.040;2024-01-25T04:56:08;1.92;;;1.38;;
61397;SDS011;47267;48.130;-2.040;2024-01-25T04:58:34;2.00;;;1.30;;
61397;SDS011;47267;48.130;-2.040;2024-01-25T05:01:00;1.58;;;1.30;;
61397;SDS011;47267;48.130;-2.040;2024-01-25T05:03:26;2.13;;;1.50;;
61397;SDS011;47267;48.130;-2.040;2024-01-25T05:05:52;3.13;;;1.17;;
61397;SDS011;47267;48.130;-2.040;2024-01-25T05:08:17;1.77;;;1.15;;
61397;SDS011;47267;48.130;-2.040;2024-01-25T05:10:43;3.10;;;1.55;;
61397;SDS011;47267;48.130;-2.040;2024-01-25T05:13:09;1.52;;;1.20;;
61397;SDS011;47267;48.130;-2.040;2024-01-25T05:15:35;2.92;;;1.50;;
61397;SDS011;47267;48.130;-2.040;2024-01-25T05:18:01;2.30;;;1.45;;
61397;SDS011;47267;48.130;-2.040;2024-01-25T05:20:27;2.38;;;1.30;;
61397;SDS011;47267;48.130;-2.040;2024-01-25T05:22:57;1.95;;;1.30;;
61397;SDS011;47267;48.130;-2.040;2024-01-25T05:25:24;3.00;;;1.40;;
61397;SDS011;47267;48.130;-2.040;2024-01-25T05:27:51;1.42;;;1.08;;
61397;SDS011;47267;48.130;-2.040;2024-01-25T05:30:17;2.05;;;1.20;;
61397;SDS011;47267;48.130;-2.040;2024-01-25T05:32:43;3.47;;;1.30;;
61397;SDS011;47267;48.130;-2.040;2024-01-25T05:35:09;2.25;;;1.40;;
61397;SDS011;47267;48.130;-2.040;2024-01-25T05:37:35;1.38;;;1.00;;
61397;SDS011;47267;48.130;-2.040;2024-01-25T05:40:00;2.17;;;1.17;;
61397;SDS011;47267;48.130;-2.040;2024-01-25T05:42:26;3.53;;;1.30;;
61397;SDS011;47267;48.130;-2.040;2024-01-25T05:44:52;2.17;;;1.30;;
61397;SDS011;47267;48.130;-2.040;2024-01-25T05:47:18;1.48;;;1.10;;
61397;SDS011;47267;48.130;-2.040;2024-01-25T05:49:44;1.73;;;1.10;;
61397;SDS011;47267;48.130;-2.040;2024-01-25T05:52:09;2.45;;;1.20;;
61397;SDS011;47267;48.130;-2.040;2024-01-25T05:54:35;1.58;;;0.93;;
61397;SDS011;47267;48.130;-2.040;2024-01-25T05:57:01;2.00;;;1.10;;
61397;SDS011;47267;48.130;-2.040;2024-01-25T05:59:27;1.73;;;1.25;;
61397;SDS011;47267;48.130;-2.040;2024-01-25T06:01:52;2.33;;;1.20;;
61397;SDS011;47267;48.130;-2.040;2024-01-25T06:04:18;1.50;;;0.95;;
61397;SDS011;47267;48.130;-2.040;2024-01-25T06:06:44;1.92;;;0.93;;
61397;SDS011;47267;48.130;-2.040;2024-01-25T06:09:10;1.95;;;1.00;;
61397;SDS011;47267;48.130;-2.040;2024-01-25T06:11:35;1.90;;;1.10;;
61397;SDS011;47267;48.130;-2.040;2024-01-25T06:14:04;1.45;;;0.95;;
61397;SDS011;47267;48.130;-2.040;2024-01-25T06:16:33;1.25;;;1.00;;
61397;SDS011;47267;48.130;-2.040;2024-01-25T06:18:58;2.45;;;1.30;;
61397;SDS011;47267;48.130;-2.040;2024-01-25T06:21:25;1.75;;;0.90;;
61397;SDS011;47267;48.130;-2.040;2024-01-25T06:23:51;2.13;;;1.00;;
61397;SDS011;47267;48.130;-2.040;2024-01-25T06:26:16;2.15;;;1.10;;
61397;SDS011;47267;48.130;-2.040;2024-01-25T06:28:42;2.22;;;1.10;;
61397;SDS011;47267;48.130;-2.040;2024-01-25T06:31:08;1.75;;;0.98;;
61397;SDS011;47267;48.130;-2.040;2024-01-25T06:33:33;2.28;;;1.10;;
61397;SDS011;47267;48.130;-2.040;2024-01-25T06:35:59;2.22;;;1.20;;
61397;SDS011;47267;48.130;-2.040;2024-01-25T06:38:25;2.53;;;1.10;;
61397;SDS011;47267;48.130;-2.040;2024-01-25T06:40:51;1.92;;;1.10;;
61397;SDS011;47267;48.130;-2.040;2024-01-25T06:43:17;2.75;;;1.13;;
61397;SDS011;47267;48.130;-2.040;2024-01-25T06:45:43;2.45;;;1.40;;
61397;SDS011;47267;48.130;-2.040;2024-01-25T06:48:08;1.73;;;1.00;;
61397;SDS011;47267;48.130;-2.040;2024-01-25T06:50:34;2.80;;;1.15;;
61397;SDS011;47267;48.130;-2.040;2024-01-25T06:53:00;2.40;;;1.38;;
61397;SDS011;47267;48.130;-2.040;2024-01-25T06:55:26;4.47;;;1.50;;
61397;SDS011;47267;48.130;-2.040;2024-01-25T06:57:51;4.30;;;1.40;;
61397;SDS011;47267;48.130;-2.040;2024-01-25T07:00:17;4.53;;;1.70;;
61397;SDS011;47267;48.130;-2.040;2024-01-25T07:02:45;4.85;;;1.42;;
61397;SDS011;47267;48.130;-2.040;2024-01-25T07:05:11;3.70;;;1.45;;
61397;SDS011;47267;48.130;-2.040;2024-01-25T07:07:37;3.88;;;1.88;;
61397;SDS011;47267;48.130;-2.040;2024-01-25T07:10:04;4.38;;;1.30;;
61397;SDS011;47267;48.130;-2.040;2024-01-25T07:12:30;3.00;;;1.25;;
61397;SDS011;47267;48.130;-2.040;2024-01-25T07:14:56;3.60;;;1.55;;
61397;SDS011;47267;48.130;-2.040;2024-01-25T07:17:22;5.85;;;1.67;;
61397;SDS011;47267;48.130;-2.040;2024-01-25T07:19:47;4.60;;;1.33;;
61397;SDS011;47267;48.130;-2.040;2024-01-25T07:22:13;2.80;;;1.40;;
61397;SDS011;47267;48.130;-2.040;2024-01-25T07:24:40;3.00;;;1.60;;
61397;SDS011;47267;48.130;-2.040;2024-01-25T07:27:06;6.70;;;1.50;;
61397;SDS011;47267;48.130;-2.040;2024-01-25T07:29:31;4.07;;;1.83;;
61397;SDS011;47267;48.130;-2.040;2024-01-25T07:31:57;4.63;;;1.33;;
61397;SDS011;47267;48.130;-2.040;2024-01-25T07:34:29;5.30;;;1.80;;
61397;SDS011;47267;48.130;-2.040;2024-01-25T07:36:55;4.18;;;1.50;;
61397;SDS011;47267;48.130;-2.040;2024-01-25T07:39:21;4.63;;;1.40;;
61397;SDS011;47267;48.130;-2.040;2024-01-25T07:41:47;2.85;;;1.70;;
61397;SDS011;47267;48.130;-2.040;2024-01-25T07:44:13;2.28;;;1.00;;
61397;SDS011;47267;48.130;-2.040;2024-01-25T07:46:38;3.58;;;1.50;;
61397;SDS011;47267;48.130;-2.040;2024-01-25T07:49:04;2.72;;;1.20;;
61397;SDS011;47267;48.130;-2.040;2024-01-25T07:51:30;4.50;;;1.77;;
61397;SDS011;47267;48.130;-2.040;2024-01-25T07:53:56;3.13;;;1.20;;
61397;SDS011;47267;48.130;-2.040;2024-01-25T07:56:21;6.15;;;1.40;;
61397;SDS011;47267;48.130;-2.040;2024-01-25T07:58:50;4.03;;;1.40;;
61397;SDS011;47267;48.130;-2.040;2024-01-25T08:01:19;2.58;;;1.13;;
61397;SDS011;47267;48.130;-2.040;2024-01-25T08:03:46;4.68;;;1.42;;
61397;SDS011;47267;48.130;-2.040;2024-01-25T08:06:12;3.45;;;1.23;;
61397;SDS011;47267;48.130;-2.040;2024-01-25T08:08:38;2.22;;;1.20;;
61397;SDS011;47267;48.130;-2.040;2024-01-25T08:11:04;5.43;;;1.65;;
61397;SDS011;47267;48.130;-2.040;2024-01-25T08:13:30;4.45;;;1.30;;
61397;SDS011;47267;48.130;-2.040;2024-01-25T08:15:56;3.63;;;1.30;;
61397;SDS011;47267;48.130;-2.040;2024-01-25T08:18:22;3.10;;;1.00;;
61397;SDS011;47267;48.130;-2.040;2024-01-25T08:20:48;2.05;;;1.00;;
61397;SDS011;47267;48.130;-2.040;2024-01-25T08:23:17;2.92;;;1.33;;
61397;SDS011;47267;48.130;-2.040;2024-01-25T08:25:44;2.60;;;1.23;;
61397;SDS011;47267;48.130;-2.040;2024-01-25T08:28:09;2.63;;;1.40;;
61397;SDS011;47267;48.130;-2.040;2024-01-25T08:30:35;3.78;;;1.45;;
61397;SDS011;47267;48.130;-2.040;2024-01-25T08:33:01;4.75;;;1.27;;
61397;SDS011;47267;48.130;-2.040;2024-01-25T08:35:26;3.13;;;1.05;;
61397;SDS011;47267;48.130;-2.040;2024-01-25T08:37:52;3.58;;;1.58;;
61397;SDS011;47267;48.130;-2.040;2024-01-25T08:40:18;1.35;;;1.00;;
61397;SDS011;47267;48.130;-2.040;2024-01-25T08:42:44;3.75;;;1.25;;
61397;SDS011;47267;48.130;-2.040;2024-01-25T08:45:09;2.97;;;1.13;;
61397;SDS011;47267;48.130;-2.040;2024-01-25T08:47:35;3.13;;;1.15;;
61397;SDS011;47267;48.130;-2.040;2024-01-25T08:50:01;2.97;;;1.27;;
61397;SDS011;47267;48.130;-2.040;2024-01-25T08:52:28;3.97;;;1.10;;
61397;SDS011;47267;48.130;-2.040;2024-01-25T08:54:54;3.40;;;1.35;;
61397;SDS011;47267;48.130;-2.040;2024-01-25T08:57:20;2.85;;;1.38;;
61397;SDS011;47267;48.130;-2.040;2024-01-25T08:59:45;4.65;;;1.70;;
61397;SDS011;47267;48.130;-2.040;2024-01-25T09:02:11;1.52;;;0.88;;
61397;SDS011;47267;48.130;-2.040;2024-01-25T09:04:37;3.05;;;0.90;;
61397;SDS011;47267;48.130;-2.040;2024-01-25T09:07:03;3.28;;;1.13;;
61397;SDS011;47267;48.130;-2.040;2024-01-25T09:09:29;4.15;;;1.10;;
61397;SDS011;47267;48.130;-2.040;2024-01-25T09:11:54;2.70;;;1.33;;
61397;SDS011;47267;48.130;-2.040;2024-01-25T09:14:20;1.33;;;0.90;;
61397;SDS011;47267;48.130;-2.040;2024-01-25T09:16:47;2.35;;;1.10;;
61397;SDS011;47267;48.130;-2.040;2024-01-25T09:19:13;2.88;;;1.27;;
61397;SDS011;47267;48.130;-2.040;2024-01-25T09:21:39;2.13;;;1.00;;
61397;SDS011;47267;48.130;-2.040;2024-01-25T09:24:05;2.50;;;1.50;;
61397;SDS011;47267;48.130;-2.040;2024-01-25T09:26:32;3.05;;;1.45;;
61397;SDS011;47267;48.130;-2.040;2024-01-25T09:28:58;3.00;;;1.50;;
61397;SDS011;47267;48.130;-2.040;2024-01-25T09:31:23;3.60;;;1.65;;
61397;SDS011;47267;48.130;-2.040;2024-01-25T09:33:49;3.63;;;1.40;;
61397;SDS011;47267;48.130;-2.040;2024-01-25T09:36:16;3.78;;;1.30;;
61397;SDS011;47267;48.130;-2.040;2024-01-25T09:38:42;3.75;;;1.20;;
61397;SDS011;47267;48.130;-2.040;2024-01-25T09:41:08;3.42;;;1.30;;
61397;SDS011;47267;48.130;-2.040;2024-01-25T09:43:35;2.78;;;1.20;;
61397;SDS011;47267;48.130;-2.040;2024-01-25T09:46:01;2.58;;;1.20;;
61397;SDS011;47267;48.130;-2.040;2024-01-25T09:48:27;3.33;;;0.93;;
61397;SDS011;47267;48.130;-2.040;2024-01-25T09:50:53;3.92;;;1.20;;
61397;SDS011;47267;48.130;-2.040;2024-01-25T09:53:23;2.72;;;1.30;;
61397;SDS011;47267;48.130;-2.040;2024-01-25T09:56:05;3.50;;;1.23;;
61397;SDS011;47267;48.130;-2.040;2024-01-25T09:58:42;4.00;;;1.40;;
61397;SDS011;47267;48.130;-2.040;2024-01-25T10:01:15;2.00;;;0.98;;
61397;SDS011;47267;48.130;-2.040;2024-01-25T10:03:45;4.18;;;1.38;;
61397;SDS011;47267;48.130;-2.040;2024-01-25T10:06:11;2.80;;;1.10;;
61397;SDS011;47267;48.130;-2.040;2024-01-25T10:08:38;4.80;;;1.10;;
61397;SDS011;47267;48.130;-2.040;2024-01-25T10:11:04;2.47;;;1.23;;
61397;SDS011;47267;48.130;-2.040;2024-01-25T10:13:30;3.63;;;1.10;;
61397;SDS011;47267;48.130;-2.040;2024-01-25T10:15:56;3.72;;;1.20;;
61397;SDS011;47267;48.130;-2.040;2024-01-25T10:18:23;2.95;;;1.67;;
61397;SDS011;47267;48.130;-2.040;2024-01-25T10:20:50;3.75;;;1.10;;
61397;SDS011;47267;48.130;-2.040;2024-01-25T10:23:18;2.42;;;1.10;;
61397;SDS011;47267;48.130;-2.040;2024-01-25T10:25:43;2.03;;;0.90;;
61397;SDS011;47267;48.130;-2.040;2024-01-25T10:28:09;1.60;;;1.00;;
61397;SDS011;47267;48.130;-2.040;2024-01-25T10:30:37;3.63;;;1.10;;
61397;SDS011;47267;48.130;-2.040;2024-01-25T10:33:04;2.58;;;1.27;;
61397;SDS011;47267;48.130;-2.040;2024-01-25T10:35:31;2.33;;;1.10;;
61397;SDS011;47267;48.130;-2.040;2024-01-25T10:37:57;2.85;;;1.10;;
61397;SDS011;47267;48.130;-2.040;2024-01-25T10:40:23;2.72;;;1.10;;
61397;SDS011;47267;48.130;-2.040;2024-01-25T10:42:49;4.00;;;1.50;;
61397;SDS011;47267;48.130;-2.040;2024-01-25T10:45:15;3.55;;;1.40;;
61397;SDS011;47267;48.130;-2.040;2024-01-25T10:47:41;2.88;;;1.10;;
61397;SDS011;47267;48.130;-2.040;2024-01-25T10:50:10;2.83;;;1.25;;
61397;SDS011;47267;48.130;-2.040;2024-01-25T10:52:39;3.78;;;1.23;;
61397;SDS011;47267;48.130;-2.040;2024-01-25T10:55:06;2.83;;;1.00;;
61397;SDS011;47267;48.130;-2.040;2024-01-25T10:57:41;4.03;;;1.30;;
61397;SDS011;47267;48.130;-2.040;2024-01-25T11:00:12;2.72;;;1.27;;
61397;SDS011;47267;48.130;-2.040;2024-01-25T11:02:42;2.40;;;1.00;;
61397;SDS011;47267;48.130;-2.040;2024-01-25T11:05:12;2.80;;;1.10;;
61397;SDS011;47267;48.130;-2.040;2024-01-25T11:07:46;3.80;;;1.20;;
61397;SDS011;47267;48.130;-2.040;2024-01-25T11:10:19;4.40;;;1.50;;
61397;SDS011;47267;48.130;-2.040;2024-01-25T11:12:49;3.10;;;1.00;;
61397;SDS011;47267;48.130;-2.040;2024-01-25T11:15:23;2.55;;;1.30;;
61397;SDS011;47267;48.130;-2.040;2024-01-25T11:17:55;1.42;;;0.90;;
61397;SDS011;47267;48.130;-2.040;2024-01-25T11:20:22;1.90;;;0.85;;
61397;SDS011;47267;48.130;-2.040;2024-01-25T11:23:04;2.70;;;1.02;;
61397;SDS011;47267;48.130;-2.040;2024-01-25T11:25:32;1.85;;;1.15;;
61397;SDS011;47267;48.130;-2.040;2024-01-25T11:28:02;2.65;;;1.10;;
61397;SDS011;47267;48.130;-2.040;2024-01-25T11:32:59;3.25;;;1.20;;
61397;SDS011;47267;48.130;-2.040;2024-01-25T11:35:25;2.60;;;1.17;;
61397;SDS011;47267;48.130;-2.040;2024-01-25T11:37:52;2.00;;;1.00;;
61397;SDS011;47267;48.130;-2.040;2024-01-25T11:40:18;2.55;;;1.02;;
61397;SDS011;47267;48.130;-2.040;2024-01-25T11:42:45;1.63;;;0.90;;
61397;SDS011;47267;48.130;-2.040;2024-01-25T11:45:13;2.03;;;0.88;;
61397;SDS011;47267;48.130;-2.040;2024-01-25T11:47:39;2.90;;;1.02;;
61397;SDS011;47267;48.130;-2.040;2024-01-25T11:50:06;2.55;;;1.13;;
61397;SDS011;47267;48.130;-2.040;2024-01-25T11:52:34;2.55;;;0.82;;
61397;SDS011;47267;48.130;-2.040;2024-01-25T11:55:04;2.33;;;1.13;;
61397;SDS011;47267;48.130;-2.040;2024-01-25T11:57:31;2.88;;;1.38;;
61397;SDS011;47267;48.130;-2.040;2024-01-25T12:00:08;2.22;;;0.90;;
61397;SDS011;47267;48.130;-2.040;2024-01-25T12:02:38;2.63;;;1.20;;
61397;SDS011;47267;48.130;-2.040;2024-01-25T12:05:05;1.88;;;0.90;;
61397;SDS011;47267;48.130;-2.040;2024-01-25T12:07:32;2.17;;;1.10;;
61397;SDS011;47267;48.130;-2.040;2024-01-25T12:10:02;2.45;;;1.40;;
61397;SDS011;47267;48.130;-2.040;2024-01-25T12:12:29;3.50;;;1.10;;
61397;SDS011;47267;48.130;-2.040;2024-01-25T12:14:58;4.70;;;1.10;;
61397;SDS011;47267;48.130;-2.040;2024-01-25T12:17:28;2.92;;;1.00;;
61397;SDS011;47267;48.130;-2.040;2024-01-25T12:19:57;2.90;;;1.00;;
61397;SDS011;47267;48.130;-2.040;2024-01-25T12:22:24;1.80;;;0.90;;
61397;SDS011;47267;48.130;-2.040;2024-01-25T12:25:01;1.88;;;1.10;;
61397;SDS011;47267;48.130;-2.040;2024-01-25T12:27:28;1.65;;;1.00;;
61397;SDS011;47267;48.130;-2.040;2024-01-25T12:29:56;2.63;;;0.98;;
61397;SDS011;47267;48.130;-2.040;2024-01-25T12:32:21;4.22;;;1.35;;
61397;SDS011;47267;48.130;-2.040;2024-01-25T12:34:54;5.30;;;1.50;;
61397;SDS011;47267;48.130;-2.040;2024-01-25T12:37:23;2.72;;;1.10;;
61397;SDS011;47267;48.130;-2.040;2024-01-25T12:39:52;1.67;;;1.00;;
61397;SDS011;47267;48.130;-2.040;2024-01-25T12:42:19;2.30;;;1.17;;
61397;SDS011;47267;48.130;-2.040;2024-01-25T12:44:45;2.10;;;0.93;;
61397;SDS011;47267;48.130;-2.040;2024-01-25T12:47:11;1.27;;;0.90;;
61397;SDS011;47267;48.130;-2.040;2024-01-25T12:49:41;2.35;;;1.20;;
61397;SDS011;47267;48.130;-2.040;2024-01-25T12:52:11;2.50;;;1.10;;
61397;SDS011;47267;48.130;-2.040;2024-01-25T12:54:38;1.92;;;0.98;;
61397;SDS011;47267;48.130;-2.040;2024-01-25T12:57:04;2.33;;;1.10;;
61397;SDS011;47267;48.130;-2.040;2024-01-25T12:59:30;5.32;;;1.20;;
61397;SDS011;47267;48.130;-2.040;2024-01-25T13:01:57;2.92;;;1.23;;
61397;SDS011;47267;48.130;-2.040;2024-01-25T13:04:23;2.42;;;1.23;;
61397;SDS011;47267;48.130;-2.040;2024-01-25T13:06:49;2.40;;;1.05;;
61397;SDS011;47267;48.130;-2.040;2024-01-25T13:09:17;3.10;;;1.38;;
61397;SDS011;47267;48.130;-2.040;2024-01-25T13:11:43;2.60;;;1.13;;
61397;SDS011;47267;48.130;-2.040;2024-01-25T13:14:08;2.63;;;1.13;;
61397;SDS011;47267;48.130;-2.040;2024-01-25T13:16:34;1.73;;;1.00;;
61397;SDS011;47267;48.130;-2.040;2024-01-25T13:19:00;2.35;;;1.20;;
61397;SDS011;47267;48.130;-2.040;2024-01-25T13:21:25;1.55;;;1.02;;
61397;SDS011;47267;48.130;-2.040;2024-01-25T13:23:51;1.98;;;1.02;;
61397;SDS011;47267;48.130;-2.040;2024-01-25T13:26:17;2.17;;;1.00;;
61397;SDS011;47267;48.130;-2.040;2024-01-25T13:28:42;2.75;;;1.10;;
61397;SDS011;47267;48.130;-2.040;2024-01-25T13:31:08;2.33;;;1.10;;
61397;SDS011;47267;48.130;-2.040;2024-01-25T13:33:34;2.78;;;1.00;;
61397;SDS011;47267;48.130;-2.040;2024-01-25T13:35:59;3.53;;;1.08;;
61397;SDS011;47267;48.130;-2.040;2024-01-25T13:38:25;2.17;;;0.90;;
61397;SDS011;47267;48.130;-2.040;2024-01-25T13:40:51;2.22;;;0.93;;
61397;SDS011;47267;48.130;-2.040;2024-01-25T13:43:16;3.20;;;0.98;;
61397;SDS011;47267;48.130;-2.040;2024-01-25T13:45:42;2.33;;;0.90;;
61397;SDS011;47267;48.130;-2.040;2024-01-25T13:48:07;2.55;;;1.17;;
61397;SDS011;47267;48.130;-2.040;2024-01-25T13:50:33;2.33;;;0.90;;
61397;SDS011;47267;48.130;-2.040;2024-01-25T13:52:59;2.03;;;1.05;;
61397;SDS011;47267;48.130;-2.040;2024-01-25T13:55:24;2.35;;;1.20;;
61397;SDS011;47267;48.130;-2.040;2024-01-25T13:57:50;5.53;;;1.23;;
61397;SDS011;47267;48.130;-2.040;2024-01-25T14:00:16;1.67;;;0.85;;
61397;SDS011;47267;48.130;-2.040;2024-01-25T14:02:42;2.08;;;0.95;;
61397;SDS011;47267;48.130;-2.040;2024-01-25T14:05:10;2.30;;;0.90;;
61397;SDS011;47267;48.130;-2.040;2024-01-25T14:07:36;1.92;;;0.98;;
61397;SDS011;47267;48.130;-2.040;2024-01-25T14:10:02;1.80;;;0.95;;
61397;SDS011;47267;48.130;-2.040;2024-01-25T14:12:27;2.15;;;1.10;;
61397;SDS011;47267;48.130;-2.040;2024-01-25T14:14:53;2.67;;;0.90;;
61397;SDS011;47267;48.130;-2.040;2024-01-25T14:17:19;2.30;;;1.00;;
61397;SDS011;47267;48.130;-2.040;2024-01-25T14:19:44;2.50;;;1.05;;
61397;SDS011;47267;48.130;-2.040;2024-01-25T14:22:10;2.40;;;1.10;;
61397;SDS011;47267;48.130;-2.040;2024-01-25T14:24:36;2.80;;;1.00;;
61397;SDS011;47267;48.130;-2.040;2024-01-25T14:27:01;1.92;;;1.05;;
61397;SDS011;47267;48.130;-2.040;2024-01-25T14:29:27;1.98;;;0.90;;
61397;SDS011;47267;48.130;-2.040;2024-01-25T14:31:57;1.10;;;0.80;;